Time;durP1;ratioP1;P1;durP2;ratioP2;P2;SDS_P1;SDS_P2;PMS_P1;PMS_P2;Temp;Humidity;BMP_temperature;BMP_pressure;BME280_temperature;BME280_humidity;BME280_pressure;Samples;Min_cycle;Max_cycle;Signal;HPM_P1;HPM_P2
2022/07/26 00:02:50;;;;;;;3.47;0.80;;;;;;;20.59;74.91;100353.88;8308942;28;20087;-85
2022/07/26 00:06:50;;;;;;;3.92;1.02;;;;;;;20.66;75.32;100374.81;8285577;28;20128;-85
2022/07/26 00:10:51;;;;;;;7.72;0.93;;;;;;;20.33;75.82;100331.81;8311103;28;20069;-85
2022/07/26 00:14:52;;;;;;;4.07;0.90;;;;;;;20.52;76.16;100377.75;8307931;28;20498;-85
2022/07/26 00:18:53;;;;;;;7.32;1.30;;;;;;;20.21;76.54;100344.47;8288068;28;20037;-85
2022/07/26 00:23:13;;;;;;;8.48;1.10;;;;;;;20.43;76.77;100379.81;8301418;28;20116;-85
2022/07/26 00:27:14;;;;;;;3.88;1.02;;;;;;;20.32;77.40;100376.81;8308141;28;20116;-85
2022/07/26 00:31:14;;;;;;;4.75;1.15;;;;;;;20.15;77.97;100367.25;8307697;28;20100;-85
2022/07/26 00:35:14;;;;;;;6.93;1.48;;;;;;;20.11;78.28;100371.44;8291839;28;20094;-85
2022/07/26 00:39:17;;;;;;;4.97;1.00;;;;;;;20.02;78.75;100361.69;8310764;28;20037;-85
2022/07/26 00:43:18;;;;;;;4.30;1.30;;;;;;;19.87;78.93;100350.00;8297116;28;20052;-85
2022/07/26 00:47:18;;;;;;;4.72;1.08;;;;;;;19.73;79.54;100331.81;8313901;28;20037;-85
2022/07/26 00:51:20;;;;;;;5.90;1.10;;;;;;;19.65;80.10;100337.47;8312746;28;20076;-85
2022/07/26 00:55:21;;;;;;;6.15;1.27;;;;;;;19.59;80.63;100336.38;8296137;28;20080;-85
2022/07/26 00:59:21;;;;;;;6.63;1.80;;;;;;;19.40;81.37;100337.94;8313047;28;20116;-85
2022/07/26 01:03:22;;;;;;;7.97;1.90;;;;;;;19.48;81.95;100367.09;8311055;28;20059;-85
2022/07/26 01:07:23;;;;;;;7.65;1.50;;;;;;;19.46;82.36;100375.53;8306606;28;20036;-85
2022/07/26 01:11:23;;;;;;;6.97;1.98;;;;;;;19.37;83.06;100376.72;8288177;28;20324;-85
2022/07/26 01:15:24;;;;;;;4.18;1.52;;;;;;;19.08;84.06;100349.50;8313058;28;20029;-85
2022/07/26 01:19:24;;;;;;;5.03;1.35;;;;;;;19.16;84.77;100373.19;8313918;28;20089;-85
2022/07/26 01:23:25;;;;;;;4.05;1.30;;;;;;;19.04;85.27;100372.91;8312986;28;20029;-85
2022/07/26 01:27:26;;;;;;;5.35;1.30;;;;;;;19.04;85.73;100386.59;8299636;28;20482;-85
2022/07/26 01:31:26;;;;;;;7.35;2.15;;;;;;;19.08;85.73;100382.41;8313529;28;20037;-85
2022/07/26 01:35:26;;;;;;;4.85;1.65;;;;;;;18.87;86.02;100360.50;8296584;28;20104;-85
2022/07/26 01:39:27;;;;;;;2.72;1.27;;;;;;;18.92;86.54;100377.22;8306279;28;20060;-85
2022/07/26 01:43:28;;;;;;;5.40;1.35;;;;;;;19.02;86.30;100376.84;8307489;28;20041;-85
2022/07/26 01:47:29;;;;;;;9.88;1.30;;;;;;;18.96;86.40;100383.13;8295999;28;20025;-85
2022/07/26 01:51:29;;;;;;;4.72;1.23;;;;;;;18.87;86.80;100382.44;8292617;28;20042;-85
2022/07/26 01:55:30;;;;;;;7.65;1.38;;;;;;;18.78;87.19;100369.06;8286960;28;20038;-85
2022/07/26 01:59:30;;;;;;;5.65;1.13;;;;;;;18.88;87.06;100370.41;8305295;28;20053;-85
2022/07/26 02:03:31;;;;;;;4.43;1.30;;;;;;;18.99;87.02;100396.44;8308885;28;20048;-86
2022/07/26 02:07:36;;;;;;;7.03;1.42;;;;;;;18.97;86.72;100393.06;8288533;28;20375;-86
2022/07/26 02:11:37;;;;;;;8.68;1.20;;;;;;;19.11;86.59;100403.94;8306630;28;20398;-86
2022/07/26 02:15:37;;;;;;;9.27;1.60;;;;;;;18.86;86.15;100355.22;8308678;28;20113;-86
2022/07/26 02:19:38;;;;;;;6.57;1.30;;;;;;;19.16;85.99;100379.50;8301057;28;20037;-86
2022/07/26 02:23:38;;;;;;;5.82;1.42;;;;;;;19.31;85.41;100404.94;8308412;28;20041;-86
2022/07/26 02:27:39;;;;;;;6.28;1.45;;;;;;;19.40;85.36;100402.94;8294223;28;20041;-86
2022/07/26 02:31:39;;;;;;;5.57;1.35;;;;;;;19.28;85.81;100404.53;8308223;28;20033;-86
2022/07/26 02:35:40;;;;;;;9.48;1.85;;;;;;;19.25;85.99;100392.00;8293493;28;20064;-86
2022/07/26 02:39:41;;;;;;;10.18;1.90;;;;;;;19.31;85.78;100415.09;8290795;28;20034;-86
2022/07/26 02:43:42;;;;;;;6.75;1.98;;;;;;;19.29;85.79;100392.50;8286518;28;20056;-86
2022/07/26 02:47:48;;;;;;;4.63;1.55;;;;;;;19.33;85.34;100389.16;8283834;28;20057;-86
2022/07/26 02:51:49;;;;;;;9.85;1.38;;;;;;;19.46;85.58;100415.84;8282914;28;20042;-86
2022/07/26 02:55:49;;;;;;;5.13;1.40;;;;;;;19.32;85.54;100387.47;8301958;28;20041;-85
2022/07/26 02:59:50;;;;;;;10.07;2.17;;;;;;;19.45;85.45;100423.22;8304541;28;20041;-86
2022/07/26 03:03:50;;;;;;;7.60;2.00;;;;;;;19.43;86.24;100422.56;8290050;28;20037;-86
2022/07/26 03:07:51;;;;;;;8.07;2.08;;;;;;;19.48;86.18;100414.59;8298173;28;20117;-86
2022/07/26 03:11:52;;;;;;;5.88;1.83;;;;;;;19.45;85.91;100406.75;8306800;28;20041;-86
2022/07/26 03:15:52;;;;;;;12.43;1.95;;;;;;;19.46;86.35;100426.81;8306528;28;20549;-86
2022/07/26 03:19:52;;;;;;;10.43;2.28;;;;;;;19.49;86.32;100427.25;8286222;28;20429;-86
2022/07/26 03:23:53;;;;;;;13.20;2.38;;;;;;;19.40;86.43;100414.72;8305118;28;20041;-86
2022/07/26 03:27:57;;;;;;;10.13;2.80;;;;;;;19.42;86.22;100429.09;8301441;28;20033;-85
2022/07/26 03:31:58;;;;;;;12.55;2.20;;;;;;;19.39;86.25;100413.03;8290893;28;20044;-85
2022/07/26 03:35:58;;;;;;;8.00;2.78;;;;;;;19.47;86.01;100431.25;8285476;28;20037;-85
2022/07/26 03:39:59;;;;;;;6.30;2.28;;;;;;;19.45;86.23;100434.19;8288507;28;20061;-85
2022/07/26 03:43:59;;;;;;;13.05;2.65;;;;;;;19.35;86.05;100417.25;8305724;28;20029;-86
2022/07/26 03:47:59;;;;;;;11.43;2.15;;;;;;;19.45;86.67;100439.66;8313117;28;20508;-86
2022/07/26 03:52:00;;;;;;;7.45;2.22;;;;;;;19.36;87.04;100446.34;8305346;28;20044;-86
2022/07/26 03:56:31;;;;;;;10.10;2.30;;;;;;;19.28;87.26;100430.03;8322978;28;20048;-86
2022/07/26 04:00:21;;;;;;;12.02;2.72;;;;;;;19.39;87.47;100454.16;8304614;28;20040;-86
2022/07/26 04:04:21;;;;;;;10.32;2.25;;;;;;;19.41;87.71;100464.94;8287117;28;20506;-86
2022/07/26 04:08:21;;;;;;;6.88;2.42;;;;;;;19.12;88.05;100427.53;8283236;28;20033;-86
2022/07/26 04:12:22;;;;;;;8.73;2.72;;;;;;;19.23;88.45;100437.13;8305442;28;20041;-86
2022/07/26 04:16:22;;;;;;;7.57;2.10;;;;;;;19.16;88.61;100433.50;8311087;28;20034;-86
2022/07/26 04:20:23;;;;;;;9.25;2.83;;;;;;;19.15;88.99;100432.63;8294716;28;20040;-86
2022/07/26 04:24:23;;;;;;;11.55;2.67;;;;;;;19.41;89.03;100460.31;8312579;28;20038;-85
2022/07/26 04:28:27;;;;;;;17.10;3.10;;;;;;;19.44;89.17;100461.81;8310282;28;20465;-85
2022/07/26 04:32:28;;;;;;;7.22;2.55;;;;;;;19.57;89.00;100469.28;8312047;28;20295;-85
2022/07/26 04:36:28;;;;;;;8.20;2.83;;;;;;;19.43;89.11;100439.00;8302685;28;20041;-85
2022/07/26 04:40:32;;;;;;;8.18;2.90;;;;;;;19.52;89.37;100465.22;8305199;28;20029;-85
2022/07/26 04:44:32;;;;;;;13.60;3.85;;;;;;;19.52;89.39;100467.16;8305420;28;20036;-85
2022/07/26 04:48:49;;;;;;;9.38;3.30;;;;;;;19.57;89.25;100474.78;8281778;28;20037;-85
2022/07/26 04:52:51;;;;;;;6.20;3.08;;;;;;;19.61;89.73;100478.81;8305816;28;20041;-85
2022/07/26 04:56:51;;;;;;;16.10;3.88;;;;;;;19.56;90.17;100462.09;8326865;28;20037;-85
2022/07/26 05:00:52;;;;;;;13.73;3.65;;;;;;;19.68;89.96;100472.31;8295914;28;20037;-86
2022/07/26 05:04:52;;;;;;;17.88;3.90;;;;;;;19.58;90.03;100463.63;8302247;28;20398;-85
2022/07/26 05:08:53;;;;;;;25.88;5.07;;;;;;;19.66;90.52;100473.56;8291629;28;20034;-85
2022/07/26 05:12:53;;;;;;;13.43;4.53;;;;;;;19.55;90.50;100438.47;8315275;28;20508;-85
2022/07/26 05:16:54;;;;;;;11.80;4.10;;;;;;;19.77;90.21;100475.75;8285583;28;20057;-85
2022/07/26 05:20:54;;;;;;;13.82;3.85;;;;;;;19.84;90.54;100476.63;8310970;28;20476;-85
2022/07/26 05:24:54;;;;;;;13.38;4.60;;;;;;;19.70;90.31;100452.94;8309816;28;20060;-85
2022/07/26 05:28:55;;;;;;;20.73;5.22;;;;;;;19.88;90.29;100477.94;8306514;28;20045;-85
2022/07/26 05:32:55;;;;;;;14.30;4.55;;;;;;;19.90;90.00;100475.84;8317001;28;20180;-85
2022/07/26 05:36:56;;;;;;;18.80;4.82;;;;;;;19.94;90.37;100471.66;8317343;28;20106;-85
2022/07/26 05:40:56;;;;;;;14.30;4.68;;;;;;;19.99;89.93;100480.13;8304833;28;20038;-85
2022/07/26 05:44:57;;;;;;;14.18;5.18;;;;;;;19.93;90.23;100472.69;8281120;28;20040;-85
2022/07/26 05:48:57;;;;;;;14.48;4.63;;;;;;;19.94;90.75;100482.63;8281859;28;20409;-85
2022/07/26 05:52:58;;;;;;;19.23;5.82;;;;;;;19.72;91.25;100445.31;8307192;28;20037;-85
2022/07/26 05:56:58;;;;;;;16.17;5.88;;;;;;;19.91;91.64;100477.56;8291361;28;20098;-85
2022/07/26 06:00:59;;;;;;;16.98;6.00;;;;;;;19.90;92.12;100486.81;8296878;28;20048;-85
2022/07/26 06:04:59;;;;;;;16.00;6.03;;;;;;;19.87;92.59;100478.97;8277867;28;20040;-86
2022/07/26 06:08:59;;;;;;;19.50;6.07;;;;;;;19.93;92.64;100486.41;8308052;28;20034;-86
2022/07/26 06:13:00;;;;;;;17.42;7.10;;;;;;;19.79;94.06;100473.66;8291061;28;20045;-86
2022/07/26 06:17:03;;;;;;;24.85;7.43;;;;;;;19.69;95.95;100475.91;8282112;28;20037;-86
2022/07/26 06:21:03;;;;;;;16.08;6.60;;;;;;;19.90;96.45;100503.28;8309603;28;20030;-86
2022/07/26 06:25:05;;;;;;;20.77;7.47;;;;;;;19.78;96.35;100499.41;8292029;28;20040;-86
2022/07/26 06:29:05;;;;;;;19.30;7.40;;;;;;;19.76;97.94;100512.47;8292737;28;20030;-86
2022/07/26 06:33:06;;;;;;;23.52;6.90;;;;;;;19.54;97.79;100497.13;8291316;28;20132;-86
2022/07/26 06:37:07;;;;;;;16.83;6.45;;;;;;;19.61;96.93;100503.50;8307767;28;20064;-86
2022/07/26 06:41:07;;;;;;;22.52;6.85;;;;;;;19.66;95.73;100490.88;8305438;28;20506;-86
2022/07/26 06:45:08;;;;;;;19.65;6.75;;;;;;;19.92;94.68;100528.63;8306507;28;20076;-86
2022/07/26 06:49:08;;;;;;;19.70;6.88;;;;;;;20.12;94.69;100535.09;8301678;28;20052;-87
2022/07/26 06:53:10;;;;;;;16.50;6.75;;;;;;;20.17;93.62;100532.63;8270835;28;20050;-87
2022/07/26 06:57:11;;;;;;;13.77;6.63;;;;;;;20.23;92.29;100537.31;8283505;28;20402;-87
2022/07/26 07:01:12;;;;;;;21.85;6.63;;;;;;;20.00;91.43;100493.63;8305124;28;20105;-87
2022/07/26 07:05:13;;;;;;;18.50;7.25;;;;;;;20.25;91.26;100524.25;8284529;28;20099;-87
2022/07/26 07:09:14;;;;;;;21.55;7.65;;;;;;;20.41;90.16;100521.16;8283757;28;20033;-87
2022/07/26 07:13:15;;;;;;;21.17;8.30;;;;;;;20.39;89.66;100528.75;8273007;28;20048;-88
2022/07/26 07:17:19;;;;;;;15.82;7.97;;;;;;;20.43;90.19;100561.09;8287819;28;20029;-88
2022/07/26 07:21:19;;;;;;;19.33;8.77;;;;;;;20.46;90.41;100559.84;8298940;28;20071;-88
2022/07/26 07:25:20;;;;;;;25.70;9.27;;;;;;;20.46;90.38;100568.09;8293915;28;20037;-88
2022/07/26 07:29:58;;;;;;;23.75;9.68;;;;;;;20.03;90.32;100508.88;8295230;28;20107;-87
2022/07/26 07:33:52;;;;;;;20.90;10.35;;;;;;;20.34;90.91;100566.97;8287085;28;20041;-88
2022/07/26 07:37:52;;;;;;;20.92;10.50;;;;;;;20.18;91.26;100548.91;8299558;28;20489;-88
2022/07/26 07:41:53;;;;;;;18.08;9.77;;;;;;;20.25;92.38;100552.53;8290818;28;20401;-88
2022/07/26 07:45:53;;;;;;;23.13;12.10;;;;;;;20.49;92.33;100575.94;8296041;28;20036;-88
2022/07/26 07:49:53;;;;;;;23.48;12.70;;;;;;;20.46;91.05;100581.84;8295490;28;20087;-87
2022/07/26 07:53:54;;;;;;;29.98;11.68;;;;;;;20.42;91.02;100575.03;8315129;28;20525;-86
2022/07/26 07:57:55;;;;;;;26.67;12.85;;;;;;;20.44;91.20;100572.94;8290613;28;20047;-86
2022/07/26 08:01:55;;;;;;;19.40;12.60;;;;;;;20.55;91.00;100581.44;8313081;28;20087;-87
2022/07/26 08:05:56;;;;;;;30.27;13.60;;;;;;;20.62;90.58;100584.22;8298163;28;20041;-87
2022/07/26 08:09:56;;;;;;;26.85;13.55;;;;;;;20.33;91.08;100546.03;8295916;28;20472;-86
2022/07/26 08:13:56;;;;;;;21.08;12.98;;;;;;;20.56;90.51;100560.31;8298339;28;20045;-86
2022/07/26 08:17:57;;;;;;;26.40;13.38;;;;;;;20.97;89.08;100585.88;8298224;28;20034;-87
2022/07/26 08:21:57;;;;;;;25.80;14.50;;;;;;;21.13;88.33;100586.38;8288840;28;20098;-86
2022/07/26 08:25:58;;;;;;;28.20;13.18;;;;;;;20.89;88.63;100544.81;8281318;28;20047;-86
2022/07/26 08:30:04;;;;;;;29.08;13.00;;;;;;;21.31;87.05;100528.00;8274275;28;20045;-86
2022/07/26 08:34:07;;;;;;;21.50;11.60;;;;;;;21.88;84.56;100569.56;8295151;28;20045;-86
2022/07/26 08:38:07;;;;;;;23.05;11.85;;;;;;;22.00;83.09;100561.50;8308000;28;20040;-86
2022/07/26 08:42:24;;;;;;;21.20;12.07;;;;;;;22.05;83.28;100570.81;8288653;28;20140;-87
2022/07/26 08:46:26;;;;;;;22.95;12.90;;;;;;;21.61;84.33;100533.97;8291907;28;20038;-86
2022/07/26 08:50:28;;;;;;;21.83;12.55;;;;;;;21.60;84.17;100538.63;8280146;28;20037;-86
2022/07/26 08:54:29;;;;;;;26.63;12.90;;;;;;;21.82;83.03;100542.91;8281876;28;20137;-87
2022/07/26 08:58:36;;;;;;;19.15;11.82;;;;;;;22.27;81.57;100604.50;8299466;28;20033;-86
2022/07/26 09:02:40;;;;;;;18.27;10.70;;;;;;;22.71;79.50;100591.69;8288172;28;20041;-85
2022/07/26 09:06:53;;;;;;;19.13;11.27;;;;;;;22.65;79.82;100588.97;8301580;28;20517;-86
2022/07/26 09:10:55;;;;;;;21.80;12.07;;;;;;;23.11;78.92;100570.31;8295893;28;20041;-86
2022/07/26 09:14:56;;;;;;;23.38;11.65;;;;;;;22.91;78.92;100573.16;8286381;28;20342;-87
2022/07/26 09:19:20;;;;;;;21.08;10.85;;;;;;;23.01;79.48;100595.63;8312532;28;20120;-86
2022/07/26 09:23:20;;;;;;;22.77;10.98;;;;;;;22.58;78.90;100553.16;8294658;28;20557;-86
2022/07/26 09:27:21;;;;;;;22.95;11.45;;;;;;;23.04;77.69;100592.44;8261830;28;20041;-86
2022/07/26 09:31:21;;;;;;;19.73;10.30;;;;;;;23.32;78.33;100596.78;8275409;28;20049;-86
2022/07/26 09:35:22;;;;;;;19.15;10.38;;;;;;;23.20;78.31;100610.38;8297820;28;20040;-86
2022/07/26 09:39:22;;;;;;;28.10;12.27;;;;;;;22.86;77.99;100584.00;8263078;28;20083;-86
2022/07/26 09:43:23;;;;;;;20.30;10.95;;;;;;;23.36;77.16;100615.41;8280277;28;20037;-86
2022/07/26 09:47:39;;;;;;;20.35;9.35;;;;;;;23.58;75.87;100610.41;8310201;28;20052;-86
2022/07/26 09:51:42;;;;;;;15.57;8.02;;;;;;;23.30;74.89;100583.19;8302629;28;20422;-86
2022/07/26 10:00:04;;;;;;;14.35;6.03;;;;;;;23.88;74.01;100634.38;8380912;27;20386;-50
2022/07/26 10:04:04;;;;;;;9.70;5.38;;;;;;;23.38;73.13;100628.97;8369007;28;20060;-51
2022/07/26 10:08:06;;;;;;;8.60;6.53;;;;;;;23.06;76.52;100636.34;8367826;28;20051;-49
2022/07/26 10:12:11;;;;;;;10.05;5.88;;;;;;;23.08;76.38;100629.53;8352086;28;20723;-49
2022/07/26 10:16:30;;;;;;;10.65;5.88;;;;;;;23.41;75.76;100634.06;8339262;28;20550;-49
2022/07/26 10:20:41;;;;;;;15.35;6.55;;;;;;;23.45;75.41;100632.56;8337064;28;20475;-49
2022/07/26 10:24:41;;;;;;;9.93;5.80;;;;;;;24.66;72.44;100632.88;8331211;28;20086;-49
2022/07/26 10:28:42;;;;;;;11.80;4.40;;;;;;;25.40;69.03;100627.94;8328566;28;20038;-49
2022/07/26 10:37:05;;;;;;;6.38;3.45;;;;;;;26.66;62.90;100621.84;8362783;28;20397;-51
2022/07/26 10:41:06;;;;;;;10.45;3.88;;;;;;;28.84;59.35;100617.38;8350577;28;20040;-53
2022/07/26 10:45:22;;;;;;;10.10;3.85;;;;;;;29.46;56.66;100611.22;8370423;28;20739;-50
2022/07/26 10:49:33;;;;;;;9.15;3.80;;;;;;;30.16;53.53;100617.53;8368377;28;20765;-52
2022/07/26 10:53:34;;;;;;;8.93;3.90;;;;;;;31.00;54.24;100617.59;8368713;28;20373;-53
2022/07/26 10:57:38;;;;;;;9.77;4.82;;;;;;;29.71;54.45;100617.13;8360859;28;20045;-51
2022/07/26 11:01:42;;;;;;;8.35;3.90;;;;;;;29.21;55.19;100622.06;8367326;28;20559;-49
2022/07/26 11:05:42;;;;;;;10.50;5.03;;;;;;;27.12;58.87;100611.75;8369285;28;20037;-50
2022/07/26 11:09:42;;;;;;;9.05;4.68;;;;;;;25.87;63.12;100607.66;8374253;28;20450;-49
2022/07/26 11:13:43;;;;;;;9.32;5.00;;;;;;;25.38;65.20;100602.44;8375526;28;20636;-50
2022/07/26 11:17:44;;;;;;;10.27;4.85;;;;;;;25.38;65.67;100596.91;8357316;28;20124;-49
2022/07/26 11:21:52;;;;;;;8.05;4.68;;;;;;;25.22;65.15;100607.75;8367388;28;20037;-50
2022/07/26 11:26:14;;;;;;;10.48;4.00;;;;;;;24.91;65.96;100611.53;8367985;28;20127;-50
2022/07/26 11:30:14;;;;;;;5.20;3.10;;;;;;;24.01;67.00;100630.72;8360653;28;20051;-51
2022/07/26 11:34:21;;;;;;;7.90;3.13;;;;;;;23.57;67.50;100628.03;8366700;28;20115;-53
2022/07/26 11:38:22;;;;;;;8.73;3.00;;;;;;;23.28;67.94;100647.94;8366391;28;20048;-50
2022/07/26 11:42:22;;;;;;;9.93;4.03;;;;;;;22.45;74.71;100648.78;8365770;28;20051;-52
2022/07/26 11:46:32;;;;;;;7.63;2.60;;;;;;;21.99;74.15;100659.78;8355649;28;20037;-52
2022/07/26 11:50:32;;;;;;;7.20;2.80;;;;;;;22.21;74.41;100658.56;8343492;28;20487;-54
2022/07/26 11:54:50;;;;;;;10.73;4.35;;;;;;;22.74;75.10;100665.72;8343394;28;20038;-52
2022/07/26 11:58:53;;;;;;;14.50;5.22;;;;;;;23.02;74.36;100669.00;8351997;28;20060;-50
2022/07/26 12:02:55;;;;;;;8.40;3.83;;;;;;;23.60;73.94;100664.31;8348978;28;20056;-50
2022/07/26 12:06:58;;;;;;;8.25;3.55;;;;;;;23.77;72.38;100659.13;8353651;28;20041;-53
2022/07/26 12:10:58;;;;;;;7.15;4.00;;;;;;;23.37;73.94;100660.41;8353913;28;20037;-52
2022/07/26 12:15:03;;;;;;;8.23;3.92;;;;;;;23.27;74.05;100660.91;8370455;28;20361;-50
2022/07/26 12:19:05;;;;;;;7.95;3.60;;;;;;;23.32;75.05;100652.78;8378674;28;20420;-54
2022/07/26 12:23:05;;;;;;;8.88;4.20;;;;;;;23.64;74.43;100650.91;8354951;28;20029;-54
2022/07/26 12:31:31;;;;;;;8.10;4.30;;;;;;;23.64;72.56;100645.41;8386271;27;20849;-52
2022/07/26 12:35:34;;;;;;;8.18;3.13;;;;;;;23.69;71.08;100642.84;8380666;28;20078;-50
2022/07/26 12:39:35;;;;;;;8.50;3.15;;;;;;;23.86;70.68;100644.81;8380262;28;20471;-50
2022/07/26 12:43:39;;;;;;;12.10;3.90;;;;;;;23.79;71.94;100634.91;8379304;28;20523;-50
2022/07/26 12:47:42;;;;;;;4.75;2.85;;;;;;;23.78;71.67;100641.50;8379715;28;20148;-49
2022/07/26 12:51:43;;;;;;;9.60;3.73;;;;;;;23.84;72.56;100643.34;8375744;28;20114;-50
2022/07/26 12:55:43;;;;;;;3.97;3.38;;;;;;;23.98;71.84;100642.22;8378558;28;20044;-50
2022/07/26 12:59:45;;;;;;;8.07;2.70;;;;;;;24.10;71.00;100634.91;8378513;28;20037;-53
2022/07/26 13:03:45;;;;;;;10.57;4.57;;;;;;;24.30;70.62;100635.53;8379545;28;20287;-49
2022/07/26 13:07:46;;;;;;;6.50;2.75;;;;;;;25.10;68.80;100638.13;8378705;28;20040;-52
2022/07/26 13:11:46;;;;;;;5.28;2.67;;;;;;;25.41;66.93;100618.59;8378672;28;20044;-49
2022/07/26 13:15:47;;;;;;;6.28;1.73;;;;;;;26.10;62.89;100626.28;8377475;28;20105;-53
2022/07/26 13:19:47;;;;;;;6.87;3.87;;;;;;;25.68;61.95;100614.31;8377121;28;20048;-50
2022/07/26 13:23:47;;;;;;;5.13;3.10;;;;;;;25.53;62.59;100618.63;8378238;28;20307;-53
2022/07/26 13:27:48;;;;;;;7.32;2.03;;;;;;;25.49;62.16;100609.91;8377782;28;20860;-52
2022/07/26 13:31:49;;;;;;;10.15;3.90;;;;;;;25.08;62.70;100611.75;8366903;28;20280;-52
2022/07/26 13:35:50;;;;;;;6.15;5.13;;;;;;;25.02;63.49;100619.06;8365437;28;20476;-51
2022/07/26 13:39:50;;;;;;;8.67;2.70;;;;;;;25.40;62.91;100597.47;8368787;28;20456;-49
2022/07/26 13:43:52;;;;;;;6.67;2.73;;;;;;;25.28;63.13;100599.31;8347076;28;20040;-50
2022/07/26 13:47:53;;;;;;;7.15;2.55;;;;;;;24.95;63.68;100596.19;8348971;28;20791;-50
2022/07/26 13:51:56;;;;;;;10.73;2.60;;;;;;;24.98;63.39;100604.84;8347195;28;20412;-53
2022/07/26 13:55:57;;;;;;;5.67;2.60;;;;;;;24.90;63.61;100601.53;8348485;28;20045;-50
2022/07/26 13:59:57;;;;;;;4.30;2.20;;;;;;;24.68;63.99;100594.78;8351449;28;20502;-50
2022/07/26 14:03:58;;;;;;;6.20;2.50;;;;;;;24.70;65.20;100606.47;8347889;28;20044;-51
2022/07/26 14:07:59;;;;;;;5.93;2.67;;;;;;;24.70;66.04;100603.72;8348078;28;20306;-48
2022/07/26 14:11:59;;;;;;;5.35;2.83;;;;;;;24.33;67.07;100597.25;8348043;28;20052;-49
2022/07/26 14:15:59;;;;;;;6.63;2.93;;;;;;;24.02;66.79;100593.72;8348708;28;20055;-52
2022/07/26 14:20:00;;;;;;;4.88;2.90;;;;;;;23.81;67.46;100618.94;8349281;28;20402;-50
2022/07/26 14:24:01;;;;;;;5.68;2.45;;;;;;;23.64;68.84;100624.16;8341644;28;20036;-50
2022/07/26 14:28:02;;;;;;;5.15;1.52;;;;;;;23.08;72.10;100632.28;8342023;28;20698;-50
2022/07/26 14:32:02;;;;;;;3.80;1.40;;;;;;;22.80;71.81;100631.75;8344640;28;20079;-52
2022/07/26 14:36:03;;;;;;;3.80;1.48;;;;;;;22.93;72.06;100648.25;8352419;28;20280;-50
2022/07/26 14:40:06;;;;;;;5.25;1.60;;;;;;;23.19;70.42;100653.69;8341534;28;20048;-51
2022/07/26 14:44:06;;;;;;;4.68;2.10;;;;;;;23.34;69.54;100649.81;8341904;28;20495;-50
2022/07/26 14:48:07;;;;;;;4.20;2.20;;;;;;;23.47;69.99;100646.97;8344903;28;20099;-50
2022/07/26 14:52:07;;;;;;;4.47;2.25;;;;;;;23.66;68.46;100640.50;8337192;28;20045;-50
2022/07/26 14:56:08;;;;;;;3.83;2.22;;;;;;;23.92;67.42;100651.38;8342740;28;20075;-50
2022/07/26 15:00:11;;;;;;;5.22;2.15;;;;;;;23.92;66.53;100654.97;8339404;28;20451;-50
2022/07/26 15:04:11;;;;;;;5.45;2.35;;;;;;;23.97;65.92;100654.34;8340856;28;20791;-50
2022/07/26 15:08:12;;;;;;;4.65;1.77;;;;;;;24.39;66.21;100650.78;8340948;28;20408;-52
2022/07/26 15:12:12;;;;;;;2.50;1.67;;;;;;;24.53;64.69;100641.28;8339073;28;20413;-52
2022/07/26 15:16:13;;;;;;;4.25;1.50;;;;;;;24.78;63.90;100640.22;8339858;28;20300;-52
2022/07/26 15:20:13;;;;;;;1.83;1.42;;;;;;;24.34;65.71;100651.44;8339440;28;20041;-51
2022/07/26 15:24:13;;;;;;;10.43;1.95;;;;;;;23.94;67.54;100657.50;8329430;28;20469;-50
2022/07/26 15:28:15;;;;;;;3.93;1.83;;;;;;;23.91;67.73;100652.44;8341549;28;20041;-50
2022/07/26 15:32:15;;;;;;;6.32;1.98;;;;;;;23.86;68.63;100657.78;8343852;28;20616;-54
2022/07/26 15:36:16;;;;;;;5.18;1.35;;;;;;;23.95;67.58;100664.75;8345200;28;20127;-52
2022/07/26 15:40:16;;;;;;;7.15;1.67;;;;;;;23.59;67.73;100659.00;8345209;28;20055;-52
2022/07/26 15:44:18;;;;;;;6.40;1.50;;;;;;;23.45;68.80;100651.88;8330521;28;20495;-51
2022/07/26 15:48:19;;;;;;;4.30;1.52;;;;;;;23.26;69.13;100663.88;8337893;28;20525;-51
2022/07/26 15:52:19;;;;;;;4.40;1.35;;;;;;;23.24;68.87;100661.34;8338950;28;20432;-51
2022/07/26 15:56:20;;;;;;;5.03;1.58;;;;;;;23.38;67.65;100657.44;8338564;28;20029;-53
2022/07/26 16:00:20;;;;;;;5.05;1.30;;;;;;;23.56;67.97;100642.88;8333789;28;20036;-53
2022/07/26 16:04:21;;;;;;;3.72;1.20;;;;;;;23.45;67.00;100640.84;8333180;28;20118;-53
2022/07/26 16:08:22;;;;;;;5.53;1.25;;;;;;;23.56;66.10;100654.78;8337913;28;20147;-52
2022/07/26 16:12:22;;;;;;;3.65;0.95;;;;;;;23.63;66.92;100655.59;8338664;28;20047;-53
2022/07/26 16:16:23;;;;;;;2.97;0.90;;;;;;;23.51;66.13;100656.53;8338941;28;20064;-52
2022/07/26 16:20:23;;;;;;;5.57;1.10;;;;;;;23.35;66.88;100662.53;8337192;28;20520;-53
2022/07/26 16:24:24;;;;;;;3.35;0.90;;;;;;;23.35;67.06;100663.38;8338201;28;20040;-50
2022/07/26 16:28:24;;;;;;;5.60;1.08;;;;;;;23.19;67.07;100664.72;8337838;28;20079;-51
2022/07/26 16:32:25;;;;;;;3.28;0.90;;;;;;;23.11;67.85;100659.44;8337492;28;20049;-52
2022/07/26 16:36:25;;;;;;;3.72;0.70;;;;;;;23.06;66.83;100653.72;8335853;28;20045;-50
2022/07/26 16:40:26;;;;;;;3.97;0.63;;;;;;;23.01;67.60;100660.97;8336985;28;20245;-54
2022/07/26 16:44:26;;;;;;;4.13;0.90;;;;;;;22.99;67.00;100663.06;8338951;28;20079;-54
2022/07/26 16:48:27;;;;;;;2.97;0.68;;;;;;;22.94;66.67;100672.00;8337735;28;20036;-52
2022/07/26 16:52:27;;;;;;;3.65;0.98;;;;;;;22.86;66.98;100658.47;8336422;28;20048;-54
2022/07/26 16:56:27;;;;;;;1.52;0.73;;;;;;;22.76;67.18;100660.84;8338234;28;20044;-53
2022/07/26 17:00:28;;;;;;;4.30;0.70;;;;;;;22.69;67.98;100672.94;8361238;28;20551;-50
2022/07/26 17:04:29;;;;;;;2.05;0.80;;;;;;;22.75;67.73;100672.91;8368647;28;20135;-49
2022/07/26 17:08:30;;;;;;;2.00;0.60;;;;;;;22.81;67.73;100662.94;8365639;28;20363;-53
2022/07/26 17:12:31;;;;;;;3.38;0.70;;;;;;;22.91;67.82;100672.44;8366951;28;20702;-55
2022/07/26 17:16:31;;;;;;;5.13;0.60;;;;;;;22.90;66.92;100672.66;8371070;28;20400;-54
2022/07/26 17:20:32;;;;;;;3.53;0.70;;;;;;;22.92;66.57;100674.16;8374659;28;20040;-52
2022/07/26 17:24:32;;;;;;;1.60;0.90;;;;;;;22.85;66.94;100667.81;8372197;28;20079;-50
2022/07/26 17:28:33;;;;;;;3.22;1.00;;;;;;;22.63;66.76;100669.13;8377593;28;20055;-51
2022/07/26 17:32:34;;;;;;;2.17;0.73;;;;;;;22.48;66.98;100679.47;8376766;28;20484;-50
2022/07/26 17:36:34;;;;;;;3.83;0.75;;;;;;;22.39;67.40;100675.28;8377170;28;20274;-49
2022/07/26 17:40:35;;;;;;;2.63;0.80;;;;;;;22.53;67.48;100668.72;8375917;28;20493;-50
2022/07/26 17:44:35;;;;;;;2.58;0.57;;;;;;;22.59;67.80;100684.41;8373663;28;20029;-50
2022/07/26 17:48:36;;;;;;;2.83;0.67;;;;;;;22.64;68.03;100683.75;8376621;28;20040;-54
2022/07/26 17:52:36;;;;;;;2.58;0.70;;;;;;;22.47;68.45;100683.31;8373671;28;20395;-52
2022/07/26 17:56:37;;;;;;;2.50;0.60;;;;;;;22.31;71.14;100686.50;8377881;28;20051;-49
2022/07/26 18:00:38;;;;;;;1.38;0.65;;;;;;;22.16;72.07;100688.63;8374239;28;20281;-52
2022/07/26 18:04:38;;;;;;;5.40;0.90;;;;;;;21.94;72.55;100692.63;8376698;28;20129;-51
2022/07/26 18:08:38;;;;;;;1.30;0.60;;;;;;;21.85;73.29;100693.88;8373802;28;20501;-50
2022/07/26 18:12:39;;;;;;;2.22;0.70;;;;;;;21.82;73.72;100697.06;8375645;28;20062;-56
2022/07/26 18:16:46;;;;;;;3.05;1.10;;;;;;;21.72;73.97;100693.84;8376494;28;20055;-50
2022/07/26 18:20:46;;;;;;;3.60;0.98;;;;;;;21.62;74.14;100700.78;8375911;28;20048;-50
2022/07/26 18:24:47;;;;;;;2.40;0.77;;;;;;;21.58;74.54;100703.09;8376825;28;20257;-50
2022/07/26 18:28:47;;;;;;;2.87;0.60;;;;;;;21.61;74.22;100699.94;8375011;28;20215;-53
2022/07/26 18:32:47;;;;;;;3.40;0.80;;;;;;;21.52;73.90;100706.69;8375198;28;20365;-53
2022/07/26 18:36:48;;;;;;;2.90;0.60;;;;;;;21.39;74.42;100717.63;8373787;28;20763;-50
2022/07/26 18:40:48;;;;;;;7.22;0.73;;;;;;;21.26;75.22;100717.59;8372036;28;20051;-53
2022/07/26 18:44:49;;;;;;;5.53;1.10;;;;;;;21.16;75.49;100722.59;8373254;28;20094;-50
2022/07/26 18:48:49;;;;;;;3.85;0.80;;;;;;;20.98;75.87;100722.31;8374130;28;20076;-53
2022/07/26 18:52:50;;;;;;;2.45;0.65;;;;;;;20.85;76.28;100730.41;8371663;28;20044;-50